Time;durP1;ratioP1;P1;durP2;ratioP2;P2;SDS_P1;SDS_P2;PMS_P1;PMS_P2;Temp;Humidity;BMP_temperature;BMP_pressure;BME280_temperature;BME280_humidity;BME280_pressure;Samples;Min_cycle;Max_cycle;Signal;HPM_P1;HPM_P2
2023/03/08 00:00:41;;;;;;;2.73;2.00;;;;;;;;;;5066354;28;20450;-67
2023/03/08 00:03:08;;;;;;;3.73;2.43;;;;;;;;;;5069312;28;20527;-62
2023/03/08 00:05:33;;;;;;;2.60;1.90;;;;;;;;;;5034268;28;20271;-64
2023/03/08 00:07:58;;;;;;;2.80;2.00;;;;;;;;;;5049466;28;20066;-62
2023/03/08 00:10:24;;;;;;;2.70;1.87;;;;;;;;;;5064509;28;20290;-63
2023/03/08 00:12:49;;;;;;;2.80;2.03;;;;;;;;;;5055498;28;20337;-65
2023/03/08 00:15:14;;;;;;;2.60;2.00;;;;;;;;;;5069629;28;20029;-66
2023/03/08 00:17:39;;;;;;;3.00;1.92;;;;;;;;;;5068775;28;20029;-63
2023/03/08 00:20:06;;;;;;;3.13;2.17;;;;;;;;;;5032737;28;20481;-64
2023/03/08 00:22:38;;;;;;;2.67;1.92;;;;;;;;;;5036951;28;20370;-65
2023/03/08 00:25:03;;;;;;;2.80;1.90;;;;;;;;;;5046165;28;20044;-64
2023/03/08 00:27:28;;;;;;;3.20;2.20;;;;;;;;;;5055551;28;20032;-63
2023/03/08 00:29:54;;;;;;;3.20;2.00;;;;;;;;;;5060704;28;20500;-66
2023/03/08 00:32:19;;;;;;;3.17;2.13;;;;;;;;;;5044062;28;20299;-67
2023/03/08 00:34:45;;;;;;;3.03;2.17;;;;;;;;;;5057257;28;20274;-65
2023/03/08 00:37:11;;;;;;;2.20;1.67;;;;;;;;;;5065944;28;20274;-66
2023/03/08 00:39:36;;;;;;;3.08;2.10;;;;;;;;;;5066335;28;20338;-67
2023/03/08 00:42:01;;;;;;;3.13;2.07;;;;;;;;;;5068190;28;20083;-67
2023/03/08 00:44:27;;;;;;;2.75;2.00;;;;;;;;;;5036510;28;20032;-63
2023/03/08 00:46:52;;;;;;;2.80;1.90;;;;;;;;;;5068503;28;20503;-68
2023/03/08 00:49:17;;;;;;;3.40;2.25;;;;;;;;;;5067694;28;20577;-68
2023/03/08 00:51:42;;;;;;;2.50;2.00;;;;;;;;;;5067866;28;20101;-67
2023/03/08 00:54:07;;;;;;;3.00;2.27;;;;;;;;;;5057128;28;20282;-63
2023/03/08 00:56:33;;;;;;;3.10;2.23;;;;;;;;;;5045557;28;20044;-65
2023/03/08 00:58:58;;;;;;;3.40;2.43;;;;;;;;;;5058844;28;20282;-64
2023/03/08 01:01:23;;;;;;;3.33;2.10;;;;;;;;;;5068442;28;20044;-64
2023/03/08 01:03:48;;;;;;;3.20;2.30;;;;;;;;;;5059779;28;20489;-68
2023/03/08 01:06:14;;;;;;;2.90;2.20;;;;;;;;;;5067677;28;20853;-61
2023/03/08 01:08:40;;;;;;;2.85;2.00;;;;;;;;;;5040897;28;20362;-64
2023/03/08 01:11:06;;;;;;;3.03;2.33;;;;;;;;;;5049356;28;20032;-68
2023/03/08 01:13:32;;;;;;;3.08;2.20;;;;;;;;;;5062237;28;20033;-66
2023/03/08 01:15:58;;;;;;;2.63;2.10;;;;;;;;;;5049340;28;20090;-70
2023/03/08 01:18:23;;;;;;;3.30;2.28;;;;;;;;;;5048555;28;20036;-68
2023/03/08 01:20:58;;;;;;;3.30;2.15;;;;;;;;;;5067627;28;20024;-62
2023/03/08 01:23:23;;;;;;;3.22;2.25;;;;;;;;;;5063425;28;20068;-65
2023/03/08 01:25:48;;;;;;;3.00;2.08;;;;;;;;;;5067529;28;20071;-65
2023/03/08 01:28:13;;;;;;;3.85;2.33;;;;;;;;;;5066773;28;20083;-65
2023/03/08 01:30:39;;;;;;;3.97;2.20;;;;;;;;;;5061765;28;20028;-65
2023/03/08 01:33:04;;;;;;;4.10;2.60;;;;;;;;;;5041229;28;20376;-67
2023/03/08 01:35:29;;;;;;;2.83;2.07;;;;;;;;;;5049367;28;20366;-65
2023/03/08 01:37:54;;;;;;;3.33;2.37;;;;;;;;;;5066841;28;20332;-67
2023/03/08 01:40:20;;;;;;;2.87;2.00;;;;;;;;;;5067913;28;20816;-66
2023/03/08 01:42:45;;;;;;;4.13;2.42;;;;;;;;;;5064844;28;20045;-66
2023/03/08 01:45:29;;;;;;;2.90;2.30;;;;;;;;;;5059859;28;20040;-66
2023/03/08 01:47:54;;;;;;;3.53;2.40;;;;;;;;;;5066055;28;20690;-66
2023/03/08 01:50:19;;;;;;;3.25;2.28;;;;;;;;;;5062944;28;20043;-67
2023/03/08 01:52:46;;;;;;;2.97;2.03;;;;;;;;;;5065008;28;20068;-65
2023/03/08 01:55:11;;;;;;;3.22;2.22;;;;;;;;;;5028773;28;20746;-66
2023/03/08 01:57:44;;;;;;;3.35;2.13;;;;;;;;;;5041936;28;20182;-63
2023/03/08 02:00:10;;;;;;;3.33;2.47;;;;;;;;;;5067187;28;20519;-67
2023/03/08 02:02:37;;;;;;;2.70;2.03;;;;;;;;;;5065233;28;20430;-66
2023/03/08 02:05:02;;;;;;;3.10;2.22;;;;;;;;;;5031985;28;20028;-67
2023/03/08 02:07:27;;;;;;;3.50;2.07;;;;;;;;;;5039538;28;20047;-62
2023/03/08 02:09:52;;;;;;;3.22;2.15;;;;;;;;;;5042356;28;20306;-65
2023/03/08 02:12:18;;;;;;;3.28;2.40;;;;;;;;;;5044785;28;20036;-64
2023/03/08 02:14:43;;;;;;;4.17;2.63;;;;;;;;;;5043894;28;20521;-66
2023/03/08 02:17:08;;;;;;;3.90;2.20;;;;;;;;;;5050954;28;20032;-67
2023/03/08 02:19:51;;;;;;;3.17;2.10;;;;;;;;;;5061525;28;20040;-64
2023/03/08 02:22:16;;;;;;;2.97;2.08;;;;;;;;;;5014127;28;20592;-65
2023/03/08 02:24:42;;;;;;;3.33;2.13;;;;;;;;;;5040955;28;20155;-62
2023/03/08 02:27:12;;;;;;;4.03;2.40;;;;;;;;;;5048421;28;20040;-67
2023/03/08 02:29:37;;;;;;;3.10;2.20;;;;;;;;;;5047397;28;20035;-65
2023/03/08 02:32:02;;;;;;;3.55;2.50;;;;;;;;;;5063844;28;20040;-66
2023/03/08 02:34:28;;;;;;;3.10;2.20;;;;;;;;;;5056005;28;20079;-62
2023/03/08 02:36:53;;;;;;;3.00;2.30;;;;;;;;;;5054948;28;20029;-67
2023/03/08 02:39:18;;;;;;;2.97;2.00;;;;;;;;;;5048106;28;21075;-66
2023/03/08 02:41:43;;;;;;;3.43;2.40;;;;;;;;;;5051429;28;20336;-68
2023/03/08 02:44:08;;;;;;;3.13;2.20;;;;;;;;;;5052015;28;20032;-65
2023/03/08 02:46:34;;;;;;;3.43;2.47;;;;;;;;;;5047366;28;20029;-64
2023/03/08 02:48:59;;;;;;;3.22;2.22;;;;;;;;;;5039485;28;20378;-68
2023/03/08 02:51:24;;;;;;;3.77;2.17;;;;;;;;;;5050603;28;20089;-65
2023/03/08 02:53:50;;;;;;;2.53;1.93;;;;;;;;;;5050869;28;20385;-64
2023/03/08 02:56:15;;;;;;;3.08;2.40;;;;;;;;;;5050870;28;20044;-63
2023/03/08 02:58:40;;;;;;;3.27;2.47;;;;;;;;;;5054048;28;20542;-65
2023/03/08 03:01:14;;;;;;;3.20;2.37;;;;;;;;;;5055293;28;20276;-66
2023/03/08 03:03:40;;;;;;;3.78;2.40;;;;;;;;;;5021821;28;20285;-64
2023/03/08 03:06:11;;;;;;;2.78;2.20;;;;;;;;;;5011949;28;20017;-66
2023/03/08 03:08:36;;;;;;;3.45;2.50;;;;;;;;;;5055152;28;20210;-64
2023/03/08 03:11:09;;;;;;;2.63;2.00;;;;;;;;;;5057600;28;20111;-65
2023/03/08 03:13:34;;;;;;;3.92;2.65;;;;;;;;;;5060574;28;20020;-66
2023/03/08 03:16:03;;;;;;;3.50;2.40;;;;;;;;;;5061799;28;20779;-66
2023/03/08 03:18:29;;;;;;;3.33;2.47;;;;;;;;;;5054736;28;20028;-63
2023/03/08 03:20:54;;;;;;;2.97;2.27;;;;;;;;;;5052982;28;20463;-66
2023/03/08 03:23:19;;;;;;;3.10;2.40;;;;;;;;;;5059226;28;20464;-69
2023/03/08 03:25:44;;;;;;;3.37;2.30;;;;;;;;;;5046399;28;20408;-65
2023/03/08 03:28:10;;;;;;;3.30;2.50;;;;;;;;;;5052922;28;20270;-66
2023/03/08 03:30:35;;;;;;;3.77;2.50;;;;;;;;;;5052780;28;20024;-68
2023/03/08 03:33:00;;;;;;;3.47;2.45;;;;;;;;;;5030424;28;20527;-66
2023/03/08 03:35:25;;;;;;;2.80;2.27;;;;;;;;;;5050649;28;20118;-65
2023/03/08 03:37:50;;;;;;;3.07;2.40;;;;;;;;;;5050178;28;20360;-68
2023/03/08 03:40:16;;;;;;;3.60;2.43;;;;;;;;;;5048787;28;20263;-63
2023/03/08 03:42:41;;;;;;;3.20;2.30;;;;;;;;;;5052198;28;20037;-64
2023/03/08 03:45:06;;;;;;;3.63;2.53;;;;;;;;;;5044658;28;20041;-66
2023/03/08 03:47:32;;;;;;;3.33;2.33;;;;;;;;;;5051241;28;20281;-64
2023/03/08 03:49:57;;;;;;;3.70;2.60;;;;;;;;;;5042501;28;20043;-63
2023/03/08 03:52:22;;;;;;;4.27;2.53;;;;;;;;;;5053588;28;20045;-65
2023/03/08 03:54:47;;;;;;;5.57;2.70;;;;;;;;;;5056126;28;20304;-70
2023/03/08 03:57:12;;;;;;;2.87;2.30;;;;;;;;;;5050449;28;20056;-70
2023/03/08 03:59:38;;;;;;;3.17;2.30;;;;;;;;;;5051435;28;20033;-67
2023/03/08 04:02:03;;;;;;;4.97;2.30;;;;;;;;;;5062765;28;20035;-67
2023/03/08 04:04:28;;;;;;;2.95;2.20;;;;;;;;;;5033802;28;20041;-68
2023/03/08 04:06:53;;;;;;;2.80;2.10;;;;;;;;;;5051944;28;20045;-72
2023/03/08 04:09:19;;;;;;;2.87;2.23;;;;;;;;;;5052922;28;20573;-68
2023/03/08 04:11:44;;;;;;;3.20;2.20;;;;;;;;;;5053624;28;20295;-70
2023/03/08 04:14:09;;;;;;;3.07;2.27;;;;;;;;;;5042262;28;20283;-69
2023/03/08 04:16:35;;;;;;;2.97;2.28;;;;;;;;;;5052838;28;20655;-67
2023/03/08 04:19:02;;;;;;;3.30;2.13;;;;;;;;;;5039498;28;20063;-68
2023/03/08 04:21:27;;;;;;;3.65;2.40;;;;;;;;;;5033592;28;20047;-67
2023/03/08 04:23:52;;;;;;;3.47;2.00;;;;;;;;;;5033137;28;20645;-72
2023/03/08 04:26:18;;;;;;;3.40;2.25;;;;;;;;;;5052277;28;20522;-67
2023/03/08 04:28:43;;;;;;;4.05;2.40;;;;;;;;;;5051944;28;20064;-73
2023/03/08 04:31:16;;;;;;;3.00;1.83;;;;;;;;;;5052264;28;20128;-73
2023/03/08 04:33:41;;;;;;;2.88;1.90;;;;;;;;;;5051094;28;20044;-65
2023/03/08 04:36:06;;;;;;;2.80;2.10;;;;;;;;;;5035173;28;20128;-71
2023/03/08 04:38:35;;;;;;;2.78;2.20;;;;;;;;;;5053599;28;20043;-68
2023/03/08 04:41:12;;;;;;;3.25;2.30;;;;;;;;;;5037472;28;20171;-66
2023/03/08 04:43:38;;;;;;;3.20;1.85;;;;;;;;;;5050235;28;20048;-65
2023/03/08 04:46:05;;;;;;;3.20;2.20;;;;;;;;;;5021102;28;20118;-64
2023/03/08 04:48:30;;;;;;;3.15;2.22;;;;;;;;;;5056822;28;20113;-70
2023/03/08 04:50:56;;;;;;;3.63;2.37;;;;;;;;;;5056762;28;20802;-71
2023/03/08 04:53:22;;;;;;;3.20;2.33;;;;;;;;;;5056768;28;20040;-63
2023/03/08 04:55:47;;;;;;;3.10;2.10;;;;;;;;;;5058389;28;20516;-71
2023/03/08 04:58:12;;;;;;;3.72;2.15;;;;;;;;;;5045135;28;20059;-69
2023/03/08 05:00:37;;;;;;;3.00;2.10;;;;;;;;;;5037188;28;20100;-73
2023/03/08 05:03:03;;;;;;;3.03;2.08;;;;;;;;;;5054625;28;20124;-66
2023/03/08 05:05:28;;;;;;;3.47;2.15;;;;;;;;;;5053788;28;20056;-67
2023/03/08 05:07:53;;;;;;;2.42;1.85;;;;;;;;;;5023786;28;20123;-73
2023/03/08 05:10:19;;;;;;;3.03;2.10;;;;;;;;;;5053720;28;20545;-74
2023/03/08 05:12:44;;;;;;;2.73;2.00;;;;;;;;;;5054341;28;20367;-69
2023/03/08 05:15:10;;;;;;;2.80;2.10;;;;;;;;;;5054423;28;20293;-68
2023/03/08 05:17:35;;;;;;;3.05;2.15;;;;;;;;;;5055442;28;20862;-67
2023/03/08 05:20:00;;;;;;;3.63;2.15;;;;;;;;;;5040154;28;20466;-70
2023/03/08 05:22:26;;;;;;;2.53;1.80;;;;;;;;;;5053197;28;20046;-63
2023/03/08 05:24:51;;;;;;;2.63;1.87;;;;;;;;;;5053765;28;20306;-66
2023/03/08 05:27:16;;;;;;;3.30;2.30;;;;;;;;;;5054482;28;20685;-70
2023/03/08 05:29:42;;;;;;;3.30;2.33;;;;;;;;;;5054568;28;20037;-65
2023/03/08 05:32:09;;;;;;;3.17;2.30;;;;;;;;;;5053211;28;20151;-67
2023/03/08 05:34:34;;;;;;;3.17;2.30;;;;;;;;;;5054135;28;20291;-70
2023/03/08 05:37:00;;;;;;;4.33;2.00;;;;;;;;;;5051374;28;20041;-65
2023/03/08 05:39:25;;;;;;;4.30;2.28;;;;;;;;;;5052090;28;20033;-65
2023/03/08 05:41:51;;;;;;;3.88;2.10;;;;;;;;;;5052107;28;20072;-67
2023/03/08 05:44:16;;;;;;;2.33;1.70;;;;;;;;;;5051539;28;20036;-67
2023/03/08 05:46:41;;;;;;;2.63;1.90;;;;;;;;;;5052023;28;20144;-66
2023/03/08 05:49:06;;;;;;;3.25;2.20;;;;;;;;;;5039784;28;20135;-67
2023/03/08 05:51:32;;;;;;;8.03;2.40;;;;;;;;;;5018195;28;20032;-64
2023/03/08 05:53:57;;;;;;;3.22;2.00;;;;;;;;;;5036463;28;20037;-67
2023/03/08 05:56:22;;;;;;;4.05;2.10;;;;;;;;;;5054386;28;20541;-63
2023/03/08 05:58:48;;;;;;;3.50;2.08;;;;;;;;;;5052818;28;20087;-65
2023/03/08 06:01:15;;;;;;;3.50;2.28;;;;;;;;;;5051889;28;20444;-70
2023/03/08 06:03:41;;;;;;;5.18;1.90;;;;;;;;;;5024094;28;20025;-67
2023/03/08 06:06:06;;;;;;;3.45;2.00;;;;;;;;;;5034199;28;20520;-68
2023/03/08 06:08:31;;;;;;;4.40;2.10;;;;;;;;;;5052230;28;20037;-65
2023/03/08 06:10:56;;;;;;;7.27;2.47;;;;;;;;;;5038413;28;20815;-66
2023/03/08 06:13:22;;;;;;;4.57;2.50;;;;;;;;;;5049182;28;20302;-68
2023/03/08 06:15:47;;;;;;;4.53;2.33;;;;;;;;;;5038706;28;20391;-65
2023/03/08 06:18:12;;;;;;;4.50;2.63;;;;;;;;;;5053050;28;20485;-62
2023/03/08 06:20:37;;;;;;;3.57;2.10;;;;;;;;;;5032395;28;20297;-66
2023/03/08 06:23:03;;;;;;;5.50;2.35;;;;;;;;;;5051467;28;20168;-70
2023/03/08 06:25:28;;;;;;;3.20;2.00;;;;;;;;;;5052962;28;20574;-65
2023/03/08 06:27:53;;;;;;;3.80;1.97;;;;;;;;;;5053290;28;20428;-65
2023/03/08 06:30:18;;;;;;;4.57;2.17;;;;;;;;;;5041977;28;20033;-69
2023/03/08 06:32:44;;;;;;;3.80;1.98;;;;;;;;;;5052941;28;20505;-66
2023/03/08 06:35:09;;;;;;;3.10;2.17;;;;;;;;;;5054516;28;20679;-67
2023/03/08 06:37:34;;;;;;;4.43;2.22;;;;;;;;;;5042130;28;20040;-67
2023/03/08 06:40:00;;;;;;;4.00;2.00;;;;;;;;;;5040227;28;20537;-66
2023/03/08 06:42:26;;;;;;;3.60;1.95;;;;;;;;;;5052795;28;20032;-70
2023/03/08 06:44:51;;;;;;;3.45;2.20;;;;;;;;;;5039952;28;20048;-66
2023/03/08 06:47:16;;;;;;;3.67;2.23;;;;;;;;;;5054052;28;20032;-68
2023/03/08 06:49:41;;;;;;;3.15;1.90;;;;;;;;;;5055014;28;20793;-66
2023/03/08 06:52:07;;;;;;;3.33;1.90;;;;;;;;;;5054271;28;20049;-68
2023/03/08 06:54:32;;;;;;;3.75;2.30;;;;;;;;;;5053000;28;20040;-66
2023/03/08 06:56:57;;;;;;;2.97;2.03;;;;;;;;;;5037098;28;20566;-65
2023/03/08 06:59:22;;;;;;;3.13;2.00;;;;;;;;;;5052219;28;20126;-65
2023/03/08 07:01:47;;;;;;;3.30;2.07;;;;;;;;;;5052257;28;20056;-66
2023/03/08 07:04:13;;;;;;;2.83;2.00;;;;;;;;;;5052368;28;20290;-66
2023/03/08 07:06:38;;;;;;;2.87;2.03;;;;;;;;;;5038814;28;20311;-68
2023/03/08 07:09:03;;;;;;;3.43;2.10;;;;;;;;;;5051723;28;20343;-67
2023/03/08 07:11:30;;;;;;;3.03;2.00;;;;;;;;;;5038948;28;20044;-66
2023/03/08 07:13:56;;;;;;;3.65;1.90;;;;;;;;;;5033991;28;20364;-70
2023/03/08 07:16:21;;;;;;;3.17;1.98;;;;;;;;;;5040356;28;20033;-68
2023/03/08 07:18:46;;;;;;;2.47;1.80;;;;;;;;;;5053361;28;20032;-67
2023/03/08 07:21:11;;;;;;;3.40;1.83;;;;;;;;;;5041440;28;20852;-68
2023/03/08 07:23:37;;;;;;;3.22;1.95;;;;;;;;;;5039697;28;20286;-65
2023/03/08 07:26:05;;;;;;;4.10;2.20;;;;;;;;;;5042736;28;20039;-68
2023/03/08 07:28:30;;;;;;;4.07;2.38;;;;;;;;;;5040470;28;20310;-69
2023/03/08 07:30:56;;;;;;;3.25;2.10;;;;;;;;;;5034019;28;20135;-65
2023/03/08 07:33:21;;;;;;;3.17;1.98;;;;;;;;;;5035874;28;20048;-64
2023/03/08 07:35:46;;;;;;;3.42;2.13;;;;;;;;;;5052619;28;20036;-70
2023/03/08 07:38:12;;;;;;;2.93;2.10;;;;;;;;;;5034237;28;20036;-62
2023/03/08 07:40:37;;;;;;;3.00;1.90;;;;;;;;;;5054495;28;20138;-69
2023/03/08 07:43:02;;;;;;;2.60;1.92;;;;;;;;;;5042181;28;20283;-68
2023/03/08 07:45:27;;;;;;;3.20;2.10;;;;;;;;;;5053583;28;20040;-72
2023/03/08 07:47:53;;;;;;;3.80;2.30;;;;;;;;;;5040567;28;20057;-72
2023/03/08 07:50:18;;;;;;;2.70;1.80;;;;;;;;;;5053152;28;20043;-65
2023/03/08 07:52:43;;;;;;;3.25;2.08;;;;;;;;;;5040549;28;20048;-68
2023/03/08 07:55:10;;;;;;;2.95;1.95;;;;;;;;;;5052716;28;20041;-70
2023/03/08 07:57:35;;;;;;;2.80;2.00;;;;;;;;;;5052238;28;20124;-64
2023/03/08 08:00:00;;;;;;;3.10;1.90;;;;;;;;;;5040925;28;20167;-70
2023/03/08 08:02:26;;;;;;;2.47;1.63;;;;;;;;;;5037295;28;20528;-66
2023/03/08 08:04:51;;;;;;;3.30;1.90;;;;;;;;;;5040209;28;20044;-64
2023/03/08 08:07:16;;;;;;;2.75;1.75;;;;;;;;;;5015817;28;20299;-62
2023/03/08 08:09:42;;;;;;;2.60;1.85;;;;;;;;;;5018735;28;20037;-67
2023/03/08 08:12:07;;;;;;;2.92;1.92;;;;;;;;;;5035399;28;20124;-61
2023/03/08 08:14:32;;;;;;;2.65;1.85;;;;;;;;;;5030360;28;20594;-64
2023/03/08 08:16:57;;;;;;;3.50;2.30;;;;;;;;;;5041342;28;20337;-64
2023/03/08 08:19:23;;;;;;;2.70;1.90;;;;;;;;;;5023764;28;20033;-67
2023/03/08 08:21:48;;;;;;;2.70;1.92;;;;;;;;;;5034958;28;20296;-70
2023/03/08 08:24:13;;;;;;;3.73;2.07;;;;;;;;;;5042359;28;20158;-69
2023/03/08 08:26:39;;;;;;;2.72;1.90;;;;;;;;;;5036623;28;20898;-68
2023/03/08 08:29:04;;;;;;;4.15;2.20;;;;;;;;;;5020357;28;20576;-70
2023/03/08 08:31:32;;;;;;;3.00;1.97;;;;;;;;;;5025474;28;20045;-71
2023/03/08 08:33:58;;;;;;;3.33;1.98;;;;;;;;;;5040661;28;20283;-69
2023/03/08 08:36:23;;;;;;;3.55;2.10;;;;;;;;;;5035193;28;20666;-61
2023/03/08 08:38:48;;;;;;;2.67;2.00;;;;;;;;;;5040795;28;20420;-72
2023/03/08 08:41:14;;;;;;;3.72;2.10;;;;;;;;;;5042361;28;20033;-70
2023/03/08 08:43:39;;;;;;;3.55;2.05;;;;;;;;;;5032701;28;20138;-69
2023/03/08 08:46:05;;;;;;;3.00;2.07;;;;;;;;;;5035747;28;20042;-77
2023/03/08 08:48:32;;;;;;;3.55;2.17;;;;;;;;;;5035804;28;20321;-66
2023/03/08 08:50:57;;;;;;;3.13;2.25;;;;;;;;;;5023597;28;20544;-66
2023/03/08 08:53:22;;;;;;;2.83;2.00;;;;;;;;;;5034343;28;20037;-67
2023/03/08 08:55:48;;;;;;;2.53;1.77;;;;;;;;;;5035892;28;20051;-70
2023/03/08 08:58:13;;;;;;;3.60;2.03;;;;;;;;;;5025276;28;20183;-70
2023/03/08 09:00:38;;;;;;;2.75;2.00;;;;;;;;;;5039403;28;20304;-70
2023/03/08 09:03:04;;;;;;;4.05;2.10;;;;;;;;;;5038369;28;20040;-71
2023/03/08 09:05:29;;;;;;;2.40;1.73;;;;;;;;;;5035641;28;20098;-68
2023/03/08 09:07:57;;;;;;;3.63;2.17;;;;;;;;;;5050499;28;20149;-66
2023/03/08 09:10:22;;;;;;;2.70;1.90;;;;;;;;;;5056628;28;20481;-66
2023/03/08 09:12:47;;;;;;;4.07;2.40;;;;;;;;;;5020474;28;20055;-67
2023/03/08 09:15:13;;;;;;;2.80;1.92;;;;;;;;;;5026286;28;20157;-70
2023/03/08 09:17:38;;;;;;;2.80;2.00;;;;;;;;;;5025916;28;20032;-65
2023/03/08 09:20:08;;;;;;;2.75;1.70;;;;;;;;;;5026277;28;20032;-66
2023/03/08 09:22:34;;;;;;;2.90;1.95;;;;;;;;;;5054627;28;20128;-70
2023/03/08 09:24:59;;;;;;;3.30;2.10;;;;;;;;;;5026160;28;20143;-68
2023/03/08 09:27:24;;;;;;;3.20;1.90;;;;;;;;;;5026270;28;20536;-65
2023/03/08 09:29:49;;;;;;;2.90;1.98;;;;;;;;;;5060179;28;20053;-70
2023/03/08 09:32:15;;;;;;;2.80;2.00;;;;;;;;;;5045752;28;20425;-70
2023/03/08 09:34:40;;;;;;;2.95;1.95;;;;;;;;;;5040971;28;20412;-70
2023/03/08 09:37:07;;;;;;;2.97;2.07;;;;;;;;;;5066999;28;20106;-71
2023/03/08 09:39:32;;;;;;;2.95;2.13;;;;;;;;;;5067856;28;20757;-71
2023/03/08 09:41:58;;;;;;;3.60;2.15;;;;;;;;;;5055669;28;20032;-65
2023/03/08 09:44:23;;;;;;;2.83;1.90;;;;;;;;;;5036962;28;20574;-71
2023/03/08 09:46:50;;;;;;;3.33;2.00;;;;;;;;;;5041545;28;20110;-68
2023/03/08 09:49:17;;;;;;;3.15;1.98;;;;;;;;;;5039515;28;20041;-63
2023/03/08 09:51:43;;;;;;;3.58;2.03;;;;;;;;;;5020511;28;20056;-70
2023/03/08 09:54:11;;;;;;;3.28;2.10;;;;;;;;;;5038975;28;20101;-67
2023/03/08 09:56:36;;;;;;;2.90;1.95;;;;;;;;;;5040537;28;20445;-66
2023/03/08 09:59:04;;;;;;;3.03;1.90;;;;;;;;;;5042295;28;20512;-67
2023/03/08 10:01:45;;;;;;;3.17;2.08;;;;;;;;;;5036409;28;20080;-70
2023/03/08 10:04:10;;;;;;;3.33;1.90;;;;;;;;;;5036326;28;20860;-69
2023/03/08 10:06:39;;;;;;;2.90;1.87;;;;;;;;;;5055802;28;20124;-70
2023/03/08 10:09:07;;;;;;;3.83;1.90;;;;;;;;;;5025179;28;20021;-68
2023/03/08 10:11:36;;;;;;;2.88;1.92;;;;;;;;;;5053926;28;20051;-67
2023/03/08 10:14:02;;;;;;;2.70;1.85;;;;;;;;;;5021072;28;20029;-64
2023/03/08 10:16:31;;;;;;;2.92;1.90;;;;;;;;;;5038590;28;20493;-68
2023/03/08 10:19:17;;;;;;;3.75;1.92;;;;;;;;;;5043462;28;20036;-67
2023/03/08 10:21:42;;;;;;;3.13;1.90;;;;;;;;;;5043367;28;20048;-66
2023/03/08 10:24:14;;;;;;;3.10;1.80;;;;;;;;;;5042523;28;20491;-71
2023/03/08 10:26:40;;;;;;;3.35;1.98;;;;;;;;;;5042591;28;20835;-71
2023/03/08 10:29:06;;;;;;;3.58;2.17;;;;;;;;;;5043303;28;20067;-73
2023/03/08 10:31:32;;;;;;;3.13;1.80;;;;;;;;;;5020518;28;20055;-70
2023/03/08 10:34:11;;;;;;;3.35;2.15;;;;;;;;;;5042053;28;20295;-66
2023/03/08 10:36:45;;;;;;;2.58;1.88;;;;;;;;;;5021251;28;20068;-63
2023/03/08 10:39:10;;;;;;;3.35;2.20;;;;;;;;;;5054891;28;20040;-70
2023/03/08 10:41:39;;;;;;;3.80;1.93;;;;;;;;;;5053232;28;20033;-73
2023/03/08 10:44:04;;;;;;;3.95;2.28;;;;;;;;;;5035205;28;20036;-71
2023/03/08 10:46:31;;;;;;;2.90;1.90;;;;;;;;;;5036347;28;20460;-68
2023/03/08 10:49:13;;;;;;;3.05;1.90;;;;;;;;;;5055117;28;20076;-66
2023/03/08 10:51:39;;;;;;;2.65;1.85;;;;;;;;;;5026538;28;20197;-69
2023/03/08 10:54:04;;;;;;;3.40;2.43;;;;;;;;;;5051202;28;20580;-70
2023/03/08 10:56:36;;;;;;;3.70;1.73;;;;;;;;;;5054616;28;20282;-70
2023/03/08 10:59:03;;;;;;;2.85;2.00;;;;;;;;;;5020098;28;20174;-71
2023/03/08 11:01:31;;;;;;;3.67;2.08;;;;;;;;;;5041448;28;20040;-70
2023/03/08 11:04:00;;;;;;;2.75;1.77;;;;;;;;;;5025340;28;20299;-65
2023/03/08 11:06:25;;;;;;;3.33;2.10;;;;;;;;;;5053667;28;20148;-65
2023/03/08 11:08:54;;;;;;;3.95;2.28;;;;;;;;;;5024640;28;20507;-67
2023/03/08 11:11:19;;;;;;;3.37;2.10;;;;;;;;;;5038726;28;20032;-70
2023/03/08 11:13:49;;;;;;;3.63;1.80;;;;;;;;;;5053940;28;20726;-69
2023/03/08 11:16:23;;;;;;;2.38;1.85;;;;;;;;;;5053646;28;20290;-65
2023/03/08 11:18:48;;;;;;;2.63;1.80;;;;;;;;;;5053290;28;20055;-67
2023/03/08 11:21:25;;;;;;;3.93;1.87;;;;;;;;;;5052809;28;20028;-65
2023/03/08 11:24:09;;;;;;;2.60;1.90;;;;;;;;;;5018856;28;20302;-67
2023/03/08 11:26:54;;;;;;;2.28;1.63;;;;;;;;;;5037287;28;20021;-65
2023/03/08 11:29:26;;;;;;;2.58;1.80;;;;;;;;;;5004113;28;20036;-66
2023/03/08 11:31:51;;;;;;;2.65;1.60;;;;;;;;;;5054002;28;20044;-66
2023/03/08 11:34:27;;;;;;;2.83;1.77;;;;;;;;;;5053112;28;20059;-62
2023/03/08 11:37:06;;;;;;;2.72;1.95;;;;;;;;;;5021140;28;20112;-64
2023/03/08 11:39:32;;;;;;;2.53;1.65;;;;;;;;;;5037330;28;20063;-69
2023/03/08 11:42:00;;;;;;;2.75;1.92;;;;;;;;;;5054909;28;20040;-64
2023/03/08 11:44:38;;;;;;;2.90;1.88;;;;;;;;;;5041691;28;20041;-64
2023/03/08 11:47:09;;;;;;;2.90;1.75;;;;;;;;;;5054691;28;20037;-66
2023/03/08 11:49:45;;;;;;;3.30;1.88;;;;;;;;;;5052218;28;20036;-68
2023/03/08 11:52:19;;;;;;;2.88;1.73;;;;;;;;;;5041163;28;20052;-70
2023/03/08 11:54:51;;;;;;;2.65;1.90;;;;;;;;;;5035199;28;20051;-64
2023/03/08 11:57:16;;;;;;;2.63;1.63;;;;;;;;;;5056565;28;20029;-68
2023/03/08 11:59:59;;;;;;;3.33;1.90;;;;;;;;;;5045499;28;20025;-64
2023/03/08 12:02:33;;;;;;;3.50;1.90;;;;;;;;;;5023336;28;20162;-64
2023/03/08 12:05:00;;;;;;;2.50;1.65;;;;;;;;;;5039239;28;20062;-69
2023/03/08 12:07:27;;;;;;;2.50;1.58;;;;;;;;;;5057605;28;20302;-64
2023/03/08 12:09:54;;;;;;;2.70;1.90;;;;;;;;;;5024251;28;20098;-66
2023/03/08 12:12:21;;;;;;;2.50;1.50;;;;;;;;;;5041399;28;20048;-71
2023/03/08 12:14:46;;;;;;;2.90;1.75;;;;;;;;;;5043249;28;20040;-67
2023/03/08 12:17:17;;;;;;;3.00;1.70;;;;;;;;;;5055880;28;20640;-67
2023/03/08 12:19:43;;;;;;;3.45;1.98;;;;;;;;;;5045142;28;20116;-66
2023/03/08 12:22:11;;;;;;;3.53;1.80;;;;;;;;;;5057309;28;20025;-68
2023/03/08 12:24:39;;;;;;;2.47;1.70;;;;;;;;;;5055151;28;20070;-65
2023/03/08 12:27:07;;;;;;;3.10;1.90;;;;;;;;;;5055821;28;20032;-68
2023/03/08 12:29:32;;;;;;;2.28;1.70;;;;;;;;;;5022253;28;20044;-67
2023/03/08 12:31:58;;;;;;;2.97;1.70;;;;;;;;;;5057599;28;20067;-68
2023/03/08 12:34:27;;;;;;;2.40;1.60;;;;;;;;;;5025006;28;20037;-68
2023/03/08 12:36:53;;;;;;;2.20;1.50;;;;;;;;;;5060126;28;20128;-64
2023/03/08 12:39:25;;;;;;;3.20;1.92;;;;;;;;;;5054199;28;20155;-69
2023/03/08 12:42:16;;;;;;;2.60;1.73;;;;;;;;;;5054712;28;20102;-65
2023/03/08 12:44:42;;;;;;;2.45;1.63;;;;;;;;;;5039843;28;20750;-66
2023/03/08 12:47:10;;;;;;;3.17;1.58;;;;;;;;;;5026408;28;20040;-70
2023/03/08 12:49:36;;;;;;;2.40;1.50;;;;;;;;;;5054369;28;20060;-69
2023/03/08 12:52:04;;;;;;;3.13;1.60;;;;;;;;;;5026968;28;20093;-68
2023/03/08 12:54:30;;;;;;;3.67;1.70;;;;;;;;;;5040676;28;20105;-69
2023/03/08 12:56:56;;;;;;;2.75;1.55;;;;;;;;;;5021583;28;20030;-68
2023/03/08 12:59:21;;;;;;;2.70;1.58;;;;;;;;;;5038708;28;20040;-69
2023/03/08 13:01:58;;;;;;;2.20;1.57;;;;;;;;;;5040426;28;20097;-70
2023/03/08 13:04:26;;;;;;;2.83;1.63;;;;;;;;;;5054352;28;20075;-70
2023/03/08 13:06:51;;;;;;;2.08;1.45;;;;;;;;;;5055405;28;20520;-66
2023/03/08 13:09:21;;;;;;;2.28;1.35;;;;;;;;;;5038193;28;20036;-63
2023/03/08 13:11:49;;;;;;;2.08;1.45;;;;;;;;;;5035201;28;20045;-68
2023/03/08 13:14:25;;;;;;;2.15;1.50;;;;;;;;;;5053778;28;20147;-70
2023/03/08 13:16:50;;;;;;;2.10;1.33;;;;;;;;;;5026349;28;20068;-66
2023/03/08 13:19:17;;;;;;;2.58;1.50;;;;;;;;;;5038084;28;20508;-70
2023/03/08 13:21:52;;;;;;;2.28;1.65;;;;;;;;;;5035757;28;20036;-69
2023/03/08 13:24:21;;;;;;;2.85;1.48;;;;;;;;;;5036926;28;20048;-72
2023/03/08 13:26:46;;;;;;;2.10;1.42;;;;;;;;;;5053799;28;20040;-68
2023/03/08 13:29:12;;;;;;;2.60;1.57;;;;;;;;;;5052640;28;20058;-68
2023/03/08 13:31:37;;;;;;;2.22;1.35;;;;;;;;;;5019443;28;20410;-66
2023/03/08 13:34:02;;;;;;;2.10;1.50;;;;;;;;;;5025531;28;20517;-69
2023/03/08 13:36:31;;;;;;;2.03;1.57;;;;;;;;;;5018459;28;20104;-66
2023/03/08 13:38:58;;;;;;;2.92;1.73;;;;;;;;;;5018129;28;20295;-66
2023/03/08 13:41:44;;;;;;;2.53;1.15;;;;;;;;;;5020262;28;20127;-65
2023/03/08 13:44:15;;;;;;;2.22;1.38;;;;;;;;;;5035475;28;20053;-72
2023/03/08 13:46:41;;;;;;;1.80;1.30;;;;;;;;;;5019205;28;20401;-66
2023/03/08 13:49:14;;;;;;;2.38;1.38;;;;;;;;;;5055199;28;20558;-67
2023/03/08 13:51:40;;;;;;;2.53;1.52;;;;;;;;;;5053032;28;20049;-69
2023/03/08 13:54:09;;;;;;;2.17;1.40;;;;;;;;;;5021050;28;20036;-67
2023/03/08 13:56:35;;;;;;;2.40;1.43;;;;;;;;;;5025902;28;20032;-74
2023/03/08 13:59:00;;;;;;;2.30;1.50;;;;;;;;;;5024962;28;20221;-67
2023/03/08 14:01:25;;;;;;;1.97;1.40;;;;;;;;;;5040786;28;20813;-64
2023/03/08 14:03:54;;;;;;;2.20;1.48;;;;;;;;;;5020291;28;20536;-65
2023/03/08 14:06:27;;;;;;;2.28;1.15;;;;;;;;;;5024882;28;20060;-72
2023/03/08 14:08:53;;;;;;;2.10;1.40;;;;;;;;;;5053463;28;20040;-61
2023/03/08 14:11:20;;;;;;;1.95;1.40;;;;;;;;;;5022898;28;20279;-70
2023/03/08 14:13:46;;;;;;;2.38;1.33;;;;;;;;;;5057610;28;20044;-67
2023/03/08 14:16:21;;;;;;;2.53;1.38;;;;;;;;;;5069298;28;20146;-65
2023/03/08 14:18:46;;;;;;;2.72;1.40;;;;;;;;;;5054033;28;20148;-68
2023/03/08 14:21:22;;;;;;;2.07;1.47;;;;;;;;;;5050151;28;20045;-66
2023/03/08 14:23:53;;;;;;;2.75;1.40;;;;;;;;;;5063656;28;20299;-69
2023/03/08 14:26:22;;;;;;;2.20;1.48;;;;;;;;;;5067899;28;20067;-71
2023/03/08 14:28:47;;;;;;;2.17;1.40;;;;;;;;;;5068641;28;20059;-67
2023/03/08 14:31:23;;;;;;;2.17;1.30;;;;;;;;;;5055006;28;20021;-72
2023/03/08 14:33:55;;;;;;;2.00;1.40;;;;;;;;;;5069066;28;20299;-72
2023/03/08 14:36:20;;;;;;;2.40;1.35;;;;;;;;;;5050555;28;20032;-65
2023/03/08 14:38:46;;;;;;;2.27;1.40;;;;;;;;;;5050103;28;20036;-66
2023/03/08 14:41:14;;;;;;;2.22;1.45;;;;;;;;;;5036437;28;20117;-68